Huvudsida
METAR-TAF:

METAR-TAF

Flygplatser :

Kunming, Kina

Kunming Changshui International Airport

latitud: 25-01N, longitud: 102-41E, höjd: 1892 m

Aktuellt väderrapport

Denna rapport gjordes för 16 minuter sedan, klockan 01:00 UTC
Vind 14 kt från sydväst
Temperatur 7°C
Fuktighet 93%
Tryck 1020 hPa
Sikt 10 km eller mer
Inga moln under 1 500 m eller inga cumulonimbus

METAR: ZPPP 200100Z 22007MPS CAVOK 07/06 Q1020 NOSIG

Tid: 09:16 (01:16 UTC)

Väderprognos

Denna rapport gjordes för 6 timmar och 4 minuter sedan, klockan 19:12 UTC
Prognos gäller från 20 kl. 00 UTC till 20 kl. 24 UTC
Vind 10 kt från sydväst
Sikt 10 km eller mer
Spridda moln på en höjd av 2600 ft
Blir
från 20 kl. 03 UTC till 20 kl. 04 UTC
Vind 19 kt från sydväst i byarna ända upp till 31 kt
Blir
från 20 kl. 11 UTC till 20 kl. 12 UTC
Vind 10 kt från sydväst

TAF: ZPPP 191912Z 2000/2024 22005MPS 9999 SCT026 TX17/2008Z TN06/2023Z BECMG 2003/2004 22010G16MPS BECMG 2011/2012 22005MPS

Aktuella väderrapporter och prognoser från 4000 flygplatser (METAR- och TAF-rapporter).

De tillgängliga stationerna syns som gula och röda prickar på kartan.

För musen över prickarna för att se namnen på stationerna.

Klicka sedan för att få väderrapporter och prognoser.

För att ändra kartan: Klicka på de gröna knapparna med ett svart kors på för att zooma in; den gröna knappen med ett streck på för att zooma ut; eller på de gröna pilarna för angränsande kartor.


METAR-TAF: